Time;durP1;ratioP1;P1;durP2;ratioP2;P2;SDS_P1;SDS_P2;PMS_P1;PMS_P2;Temp;Humidity;BMP_temperature;BMP_pressure;BME280_temperature;BME280_humidity;BME280_pressure;Samples;Min_cycle;Max_cycle;Signal;HPM_P1;HPM_P2
2021/04/25 00:01:11;;;;;;;17.88;9.20;;;8.80;64.40;;;;;;5066106;28;20033;-62
2021/04/25 00:03:37;;;;;;;17.70;9.85;;;9.10;63.60;;;;;;5068058;28;20084;-63
2021/04/25 00:06:03;;;;;;;16.30;9.13;;;9.20;62.60;;;;;;5066673;28;20036;-63
2021/04/25 00:08:29;;;;;;;17.42;9.98;;;9.30;61.60;;;;;;5066246;28;20048;-63
2021/04/25 00:10:55;;;;;;;18.75;8.70;;;9.20;62.10;;;;;;5066326;28;20053;-62
2021/04/25 00:13:20;;;;;;;14.18;8.77;;;9.00;59.80;;;;;;5066267;28;20033;-62
2021/04/25 00:15:46;;;;;;;17.90;9.27;;;8.90;60.50;;;;;;5067830;28;20035;-62
2021/04/25 00:18:11;;;;;;;18.45;9.18;;;8.40;59.50;;;;;;5066431;28;20033;-63
2021/04/25 00:20:37;;;;;;;15.63;8.45;;;8.30;62.20;;;;;;5065662;28;20228;-62
2021/04/25 00:23:02;;;;;;;16.65;8.60;;;8.20;63.00;;;;;;5065755;28;20291;-62
2021/04/25 00:25:28;;;;;;;15.15;8.30;;;8.10;62.30;;;;;;5065774;28;20052;-62
2021/04/25 00:27:54;;;;;;;14.55;9.23;;;8.00;62.70;;;;;;5065919;28;20037;-62
2021/04/25 00:30:21;;;;;;;15.45;8.52;;;8.20;64.10;;;;;;5066440;28;20054;-62
2021/04/25 00:32:46;;;;;;;17.52;8.00;;;7.90;63.10;;;;;;5066147;28;20044;-62
2021/04/25 00:35:12;;;;;;;17.35;8.18;;;7.90;64.60;;;;;;5065560;28;20343;-62
2021/04/25 00:37:38;;;;;;;13.05;7.88;;;8.10;63.80;;;;;;5065856;28;20029;-62
2021/04/25 00:40:09;;;;;;;16.08;8.15;;;8.10;64.60;;;;;;5065753;28;20313;-63
2021/04/25 00:42:34;;;;;;;12.85;7.55;;;7.90;63.40;;;;;;5066986;28;20201;-62
2021/04/25 00:45:05;;;;;;;11.48;7.07;;;7.80;63.70;;;;;;5065894;28;20035;-62
2021/04/25 00:47:30;;;;;;;14.15;7.40;;;8.20;65.40;;;;;;5065646;28;20029;-62
2021/04/25 00:49:56;;;;;;;15.32;7.20;;;8.10;63.80;;;;;;5056458;28;20052;-62
2021/04/25 00:52:22;;;;;;;13.15;7.50;;;7.90;63.30;;;;;;5048541;28;20032;-62
2021/04/25 00:54:47;;;;;;;11.75;6.57;;;8.00;63.30;;;;;;5049218;28;20223;-62
2021/04/25 00:57:15;;;;;;;11.43;6.65;;;7.60;63.90;;;;;;5064252;28;20037;-62
2021/04/25 00:59:42;;;;;;;14.93;7.63;;;7.60;64.10;;;;;;5064476;28;20041;-62
2021/04/25 01:02:07;;;;;;;11.80;6.95;;;7.90;65.80;;;;;;5053600;28;20398;-62
2021/04/25 01:04:34;;;;;;;13.05;6.95;;;8.10;65.20;;;;;;5050027;28;20029;-62
2021/04/25 01:07:01;;;;;;;10.45;6.90;;;8.40;63.70;;;;;;5064085;28;20308;-62
2021/04/25 01:09:27;;;;;;;13.32;7.30;;;8.30;62.90;;;;;;5066529;28;20031;-62
2021/04/25 01:11:52;;;;;;;13.60;7.50;;;8.40;62.90;;;;;;5065140;28;20228;-63
2021/04/25 01:14:18;;;;;;;10.15;7.05;;;8.40;62.80;;;;;;5064654;28;20266;-62
2021/04/25 01:16:44;;;;;;;12.13;6.72;;;8.30;62.50;;;;;;5063587;28;20072;-62
2021/04/25 01:19:09;;;;;;;16.58;7.15;;;8.00;62.40;;;;;;5064732;28;20108;-62
2021/04/25 01:21:35;;;;;;;16.38;7.13;;;7.80;63.60;;;;;;5065041;28;20120;-62
2021/04/25 01:24:00;;;;;;;13.80;7.43;;;8.00;64.10;;;;;;5045480;28;20107;-62
2021/04/25 01:26:26;;;;;;;12.10;6.75;;;8.10;63.30;;;;;;5057745;28;20041;-62
2021/04/25 01:28:51;;;;;;;14.90;6.95;;;7.80;62.00;;;;;;5064813;28;20227;-62
2021/04/25 01:31:18;;;;;;;12.18;6.30;;;7.90;64.00;;;;;;5063435;28;20088;-62
2021/04/25 01:33:43;;;;;;;12.77;7.18;;;8.10;62.90;;;;;;5065033;28;20041;-62
2021/04/25 01:36:09;;;;;;;15.90;6.80;;;8.20;62.70;;;;;;5064471;28;20047;-62
2021/04/25 01:38:34;;;;;;;11.50;6.75;;;7.90;62.00;;;;;;5064813;28;20268;-62
2021/04/25 01:41:00;;;;;;;11.13;6.35;;;7.40;61.30;;;;;;5063891;28;20208;-62
2021/04/25 01:43:25;;;;;;;13.15;6.80;;;7.20;63.20;;;;;;5064247;28;20266;-62
2021/04/25 01:45:51;;;;;;;12.15;7.50;;;7.10;63.00;;;;;;5064860;28;20029;-62
2021/04/25 01:48:16;;;;;;;18.38;7.50;;;7.30;63.20;;;;;;5065812;28;20303;-62
2021/04/25 01:50:42;;;;;;;14.10;7.05;;;7.20;65.10;;;;;;5064829;28;20037;-62
2021/04/25 01:53:07;;;;;;;13.82;6.93;;;7.00;64.30;;;;;;5064239;28;20033;-62
2021/04/25 01:55:34;;;;;;;17.42;6.82;;;7.30;65.60;;;;;;5064303;28;20096;-62
2021/04/25 01:58:00;;;;;;;16.20;6.82;;;7.50;64.40;;;;;;5064103;28;20268;-61
2021/04/25 02:00:35;;;;;;;12.68;6.60;;;7.40;64.40;;;;;;5065561;28;20033;-61
2021/04/25 02:03:01;;;;;;;11.82;7.38;;;7.50;64.80;;;;;;5062834;28;20037;-64
2021/04/25 02:05:27;;;;;;;12.90;7.13;;;7.50;64.10;;;;;;5064368;28;20036;-62
2021/04/25 02:07:53;;;;;;;14.98;7.30;;;7.60;63.20;;;;;;5064113;28;20304;-63
2021/04/25 02:10:19;;;;;;;12.43;6.80;;;7.60;62.70;;;;;;5063984;28;20037;-63
2021/04/25 02:12:44;;;;;;;14.65;7.50;;;7.30;61.90;;;;;;5065141;28;20032;-62
2021/04/25 02:15:12;;;;;;;15.10;7.45;;;6.90;63.00;;;;;;5064215;28;20116;-62
2021/04/25 02:17:37;;;;;;;13.70;7.35;;;7.00;64.00;;;;;;5063525;28;20037;-63
2021/04/25 02:20:04;;;;;;;12.98;7.63;;;7.10;64.30;;;;;;5063148;28;20178;-63
2021/04/25 02:22:30;;;;;;;12.65;7.35;;;7.20;64.70;;;;;;5063474;28;20104;-63
2021/04/25 02:24:55;;;;;;;13.50;6.90;;;7.40;64.80;;;;;;5063488;28;20036;-63
2021/04/25 02:27:21;;;;;;;11.73;6.68;;;7.50;63.90;;;;;;5065341;28;20055;-62
2021/04/25 02:29:46;;;;;;;12.52;6.80;;;7.20;63.60;;;;;;5063887;28;20041;-63
2021/04/25 02:32:12;;;;;;;13.90;6.65;;;7.00;65.70;;;;;;5063175;28;20044;-63
2021/04/25 02:34:37;;;;;;;13.30;6.55;;;7.30;63.80;;;;;;5063469;28;20029;-63
2021/04/25 02:37:03;;;;;;;11.57;6.63;;;7.20;65.30;;;;;;5063585;28;20025;-63
2021/04/25 02:39:29;;;;;;;11.15;6.50;;;7.40;64.30;;;;;;5065136;28;20050;-63
2021/04/25 02:41:54;;;;;;;11.88;6.88;;;7.00;63.60;;;;;;5063430;28;20041;-63
2021/04/25 02:44:20;;;;;;;15.25;7.07;;;6.80;64.10;;;;;;5063589;28;20073;-63
2021/04/25 02:46:46;;;;;;;10.80;6.10;;;6.70;65.20;;;;;;5063503;28;20044;-63
2021/04/25 02:49:11;;;;;;;11.52;7.00;;;7.10;65.50;;;;;;5063112;28;20127;-66
2021/04/25 02:51:37;;;;;;;14.80;6.78;;;7.00;65.70;;;;;;5064664;28;20276;-62
2021/04/25 02:54:03;;;;;;;11.98;6.32;;;7.00;64.50;;;;;;5063529;28;20041;-63
2021/04/25 02:56:28;;;;;;;9.77;5.95;;;7.00;65.20;;;;;;5063161;28;20041;-63
2021/04/25 02:58:54;;;;;;;12.02;6.28;;;6.80;66.00;;;;;;5062949;28;20063;-63
2021/04/25 03:01:19;;;;;;;10.02;6.20;;;6.80;67.00;;;;;;5063276;28;20213;-63
2021/04/25 03:03:46;;;;;;;11.80;6.43;;;6.90;67.80;;;;;;5064713;28;20036;-63
2021/04/25 03:06:12;;;;;;;12.57;6.45;;;7.00;67.40;;;;;;5042248;28;20034;-63
2021/04/25 03:08:37;;;;;;;12.38;6.38;;;7.10;68.00;;;;;;5057463;28;20396;-63
2021/04/25 03:11:03;;;;;;;17.90;6.25;;;7.10;65.50;;;;;;5061964;28;20037;-63
2021/04/25 03:13:28;;;;;;;14.52;6.22;;;7.20;65.10;;;;;;5062974;28;20025;-63
2021/04/25 03:15:54;;;;;;;9.70;5.75;;;7.30;66.60;;;;;;5062939;28;20029;-63
2021/04/25 03:18:19;;;;;;;11.40;6.30;;;7.40;66.20;;;;;;5064730;28;20331;-63
2021/04/25 03:20:45;;;;;;;9.63;5.82;;;7.30;66.60;;;;;;5062675;28;20083;-63
2021/04/25 03:23:10;;;;;;;10.35;6.00;;;7.40;67.10;;;;;;5062542;28;20056;-63
2021/04/25 03:25:36;;;;;;;9.32;6.28;;;7.20;66.50;;;;;;5062209;28;20024;-63
2021/04/25 03:28:02;;;;;;;9.45;5.78;;;7.40;67.80;;;;;;5062423;28;20037;-62
2021/04/25 03:30:28;;;;;;;10.60;5.93;;;7.50;66.80;;;;;;5064068;28;20048;-63
2021/04/25 03:32:54;;;;;;;11.57;6.80;;;7.40;66.90;;;;;;5062686;28;20040;-63
2021/04/25 03:35:19;;;;;;;10.60;6.50;;;7.40;67.30;;;;;;5062337;28;20251;-63
2021/04/25 03:37:45;;;;;;;13.05;6.55;;;7.50;66.50;;;;;;5062523;28;20101;-63
2021/04/25 03:40:12;;;;;;;13.30;7.50;;;7.60;66.20;;;;;;5062314;28;20041;-63
2021/04/25 03:42:38;;;;;;;13.75;7.57;;;7.40;66.40;;;;;;5063798;28;20037;-63
2021/04/25 03:45:05;;;;;;;15.25;7.68;;;7.30;65.50;;;;;;5062798;28;20028;-63
2021/04/25 03:47:31;;;;;;;15.82;7.60;;;7.30;67.20;;;;;;5062193;28;20033;-63
2021/04/25 03:49:56;;;;;;;15.00;8.02;;;7.40;66.40;;;;;;5062227;28;20029;-63
2021/04/25 03:52:22;;;;;;;14.77;8.23;;;7.30;67.20;;;;;;5058085;28;20052;-63
2021/04/25 03:54:47;;;;;;;15.90;8.40;;;7.50;67.20;;;;;;5043853;28;20301;-63
2021/04/25 03:57:13;;;;;;;17.17;8.63;;;7.80;66.20;;;;;;5062358;28;20041;-62
2021/04/25 03:59:38;;;;;;;13.85;7.85;;;7.50;65.90;;;;;;5062573;28;20041;-64
2021/04/25 04:02:04;;;;;;;14.30;8.43;;;7.40;67.10;;;;;;5062180;28;20370;-63
2021/04/25 04:04:30;;;;;;;12.13;7.72;;;7.40;66.90;;;;;;5060924;28;20194;-63
2021/04/25 04:06:55;;;;;;;16.35;8.55;;;7.40;67.30;;;;;;5061132;28;20333;-64
2021/04/25 04:09:21;;;;;;;14.50;8.60;;;7.40;67.40;;;;;;5063623;28;20025;-64
2021/04/25 04:11:46;;;;;;;17.73;8.63;;;7.40;66.80;;;;;;5062118;28;20044;-64
2021/04/25 04:14:12;;;;;;;16.65;9.63;;;7.60;66.90;;;;;;5062218;28;20052;-63
2021/04/25 04:16:37;;;;;;;17.42;9.35;;;7.60;66.10;;;;;;5062157;28;20033;-64
2021/04/25 04:19:03;;;;;;;15.13;9.15;;;7.70;66.80;;;;;;5062392;28;20095;-64
2021/04/25 04:21:28;;;;;;;17.42;9.60;;;7.70;66.20;;;;;;5063366;28;20095;-63
2021/04/25 04:23:54;;;;;;;19.00;9.15;;;7.60;66.00;;;;;;5062422;28;20053;-63
2021/04/25 04:26:20;;;;;;;15.05;8.57;;;7.70;65.00;;;;;;5062320;28;20052;-63
2021/04/25 04:28:46;;;;;;;14.95;9.38;;;7.50;65.60;;;;;;5062046;28;20033;-64
2021/04/25 04:31:11;;;;;;;16.35;9.23;;;7.60;65.90;;;;;;5061617;28;20201;-63
2021/04/25 04:33:37;;;;;;;15.40;8.70;;;7.50;65.10;;;;;;5063699;28;20136;-63
2021/04/25 04:36:04;;;;;;;20.50;9.25;;;7.50;66.10;;;;;;5063459;28;20036;-63
2021/04/25 04:38:29;;;;;;;17.02;9.00;;;7.50;65.30;;;;;;5065268;28;20037;-63
2021/04/25 04:40:56;;;;;;;16.55;8.27;;;7.50;66.10;;;;;;5065927;28;20189;-63
2021/04/25 04:43:22;;;;;;;15.18;8.30;;;7.60;65.30;;;;;;5065401;28;20041;-63
2021/04/25 04:45:47;;;;;;;13.93;8.50;;;7.70;64.70;;;;;;5067329;28;20047;-63
2021/04/25 04:48:13;;;;;;;15.82;8.50;;;7.30;65.10;;;;;;5065961;28;20083;-63
2021/04/25 04:50:38;;;;;;;12.98;7.82;;;6.90;66.70;;;;;;5065654;28;20268;-63
2021/04/25 04:53:04;;;;;;;12.13;7.78;;;7.10;67.70;;;;;;5065604;28;20056;-63
2021/04/25 04:55:29;;;;;;;17.75;7.97;;;7.30;67.70;;;;;;5059749;28;20104;-63
2021/04/25 04:57:55;;;;;;;16.10;8.05;;;7.40;66.30;;;;;;5043603;28;20056;-63
2021/04/25 05:00:20;;;;;;;13.77;7.38;;;7.40;65.20;;;;;;5046794;28;20025;-63
2021/04/25 05:02:46;;;;;;;10.70;7.07;;;7.70;65.50;;;;;;5043898;28;20050;-62
2021/04/25 05:05:12;;;;;;;13.88;7.20;;;7.90;65.70;;;;;;5045394;28;20038;-63
2021/04/25 05:07:37;;;;;;;15.73;7.10;;;7.90;65.10;;;;;;5050425;28;20056;-63
2021/04/25 05:10:03;;;;;;;14.40;7.45;;;7.90;65.30;;;;;;5064108;28;20083;-63
2021/04/25 05:12:29;;;;;;;16.42;7.38;;;8.10;64.80;;;;;;5066540;28;20033;-63
2021/04/25 05:14:55;;;;;;;13.80;7.50;;;8.10;65.10;;;;;;5065350;28;20041;-63
2021/04/25 05:17:20;;;;;;;14.18;7.53;;;8.10;64.50;;;;;;5063432;28;20083;-63
2021/04/25 05:19:46;;;;;;;12.38;7.03;;;8.20;64.10;;;;;;5064815;28;20071;-62
2021/04/25 05:22:11;;;;;;;12.85;7.53;;;8.20;64.60;;;;;;5064976;28;20052;-62
2021/04/25 05:24:37;;;;;;;14.23;7.07;;;8.20;64.40;;;;;;5066599;28;20048;-62
2021/04/25 05:27:03;;;;;;;12.45;7.43;;;8.30;64.40;;;;;;5064675;28;20083;-62
2021/04/25 05:29:28;;;;;;;12.88;7.32;;;8.30;63.70;;;;;;5064718;28;20071;-63
2021/04/25 05:31:54;;;;;;;14.65;8.15;;;8.40;63.50;;;;;;5064709;28;20033;-61
2021/04/25 05:34:19;;;;;;;21.33;8.00;;;8.40;63.90;;;;;;5064483;28;20056;-62
2021/04/25 05:36:46;;;;;;;15.90;7.78;;;8.40;64.00;;;;;;5066266;28;20307;-61
2021/04/25 05:39:11;;;;;;;14.57;7.82;;;8.60;63.60;;;;;;5064927;28;20320;-63
2021/04/25 05:41:37;;;;;;;13.50;7.90;;;8.60;63.60;;;;;;5064838;28;20040;-63
2021/04/25 05:44:03;;;;;;;11.82;7.35;;;8.70;62.30;;;;;;5064490;28;20037;-61
2021/04/25 05:46:29;;;;;;;15.48;8.23;;;8.80;62.20;;;;;;5064468;28;20035;-63
2021/04/25 05:48:55;;;;;;;15.85;9.65;;;8.90;62.00;;;;;;5063975;28;20040;-62
2021/04/25 05:51:20;;;;;;;17.50;8.98;;;9.00;60.40;;;;;;5066099;28;20176;-61
2021/04/25 05:53:46;;;;;;;18.00;8.88;;;9.00;60.30;;;;;;5063578;28;20092;-63
2021/04/25 05:56:11;;;;;;;16.88;9.10;;;9.00;60.10;;;;;;5064371;28;20217;-63
2021/04/25 05:58:37;;;;;;;17.48;9.90;;;9.10;60.30;;;;;;5064058;28;20036;-63
2021/04/25 06:01:03;;;;;;;17.92;11.02;;;9.10;61.10;;;;;;5063855;28;20086;-63
2021/04/25 06:03:29;;;;;;;20.90;11.90;;;9.10;61.30;;;;;;5065533;28;20041;-64
2021/04/25 06:05:54;;;;;;;18.27;11.30;;;9.20;60.50;;;;;;5063948;28;20056;-63
2021/04/25 06:08:20;;;;;;;20.75;11.93;;;9.30;60.30;;;;;;5063735;28;20082;-62
2021/04/25 06:10:46;;;;;;;18.73;11.48;;;9.30;60.10;;;;;;5062683;28;20378;-62
2021/04/25 06:13:11;;;;;;;25.15;12.45;;;9.30;60.00;;;;;;5063710;28;20352;-62
2021/04/25 06:15:37;;;;;;;20.63;11.77;;;9.40;59.80;;;;;;5065508;28;20394;-63
2021/04/25 06:18:03;;;;;;;20.40;13.38;;;9.40;59.70;;;;;;5064135;28;20033;-62
2021/04/25 06:20:29;;;;;;;22.90;13.02;;;9.40;59.80;;;;;;5063488;28;20049;-62
2021/04/25 06:22:55;;;;;;;22.00;13.10;;;9.50;59.30;;;;;;5042549;28;20072;-61
2021/04/25 06:25:20;;;;;;;20.05;12.98;;;9.60;59.70;;;;;;5047960;28;20033;-61
2021/04/25 06:27:46;;;;;;;22.40;12.48;;;9.70;59.00;;;;;;5064922;28;20052;-61
2021/04/25 06:30:13;;;;;;;18.88;13.10;;;9.80;59.50;;;;;;5063353;28;20335;-62
2021/04/25 06:32:39;;;;;;;25.05;13.43;;;9.90;58.20;;;;;;5062366;28;20044;-61
2021/04/25 06:35:05;;;;;;;23.23;13.27;;;9.90;57.70;;;;;;5063884;28;20375;-61
2021/04/25 06:37:31;;;;;;;19.27;12.98;;;10.00;57.60;;;;;;5063553;28;20032;-61
2021/04/25 06:39:57;;;;;;;21.25;13.07;;;10.00;57.90;;;;;;5063484;28;20204;-61
2021/04/25 06:42:22;;;;;;;18.05;12.05;;;10.10;57.80;;;;;;5064945;28;20044;-61
2021/04/25 06:44:48;;;;;;;18.33;12.88;;;10.20;57.30;;;;;;5044695;28;20045;-62
2021/04/25 06:47:14;;;;;;;22.83;13.68;;;10.30;57.20;;;;;;5054955;28;20371;-62
2021/04/25 06:49:41;;;;;;;19.60;13.43;;;10.40;57.30;;;;;;5056502;28;20033;-62
2021/04/25 06:52:06;;;;;;;18.92;12.98;;;10.40;56.30;;;;;;5044999;28;20021;-62
2021/04/25 06:54:32;;;;;;;22.63;13.68;;;10.60;56.20;;;;;;5063793;28;20072;-61
2021/04/25 06:56:57;;;;;;;21.85;14.15;;;10.80;56.10;;;;;;5062389;28;20044;-62
2021/04/25 06:59:23;;;;;;;21.67;13.93;;;11.10;55.40;;;;;;5061118;28;20096;-62
2021/04/25 07:01:48;;;;;;;21.55;13.57;;;11.60;54.20;;;;;;5062926;28;20037;-62
2021/04/25 07:04:14;;;;;;;20.75;13.20;;;12.00;52.20;;;;;;5059461;28;20300;-63
2021/04/25 07:06:40;;;;;;;22.13;13.95;;;11.90;52.80;;;;;;5027228;28;20030;-63
2021/04/25 07:09:06;;;;;;;24.73;14.27;;;11.80;52.50;;;;;;5043124;28;20355;-62
2021/04/25 07:11:31;;;;;;;21.30;14.50;;;11.90;53.10;;;;;;5056539;28;20154;-63
2021/04/25 07:13:57;;;;;;;22.80;14.38;;;12.00;55.40;;;;;;5061393;28;20079;-62
2021/04/25 07:16:23;;;;;;;20.13;14.15;;;12.60;52.10;;;;;;5062657;28;20033;-62
2021/04/25 07:18:49;;;;;;;23.85;13.98;;;18.80;37.90;;;;;;5064440;28;20043;-63
2021/04/25 07:21:14;;;;;;;18.67;14.25;;;25.90;25.60;;;;;;5042334;28;20073;-63
2021/04/25 07:23:40;;;;;;;20.60;14.75;;;30.80;19.70;;;;;;5042961;28;20029;-63
2021/04/25 07:26:08;;;;;;;21.60;13.57;;;35.70;15.20;;;;;;5042257;28;20232;-62
2021/04/25 07:28:36;;;;;;;18.33;13.50;;;40.50;12.60;;;;;;5048654;28;20071;-62
2021/04/25 07:31:01;;;;;;;17.00;11.55;;;43.90;9.80;;;;;;5058222;28;20040;-63
2021/04/25 07:33:27;;;;;;;12.75;10.93;;;46.10;8.70;;;;;;5044296;28;20025;-64
2021/04/25 07:35:52;;;;;;;14.55;13.05;;;46.60;8.00;;;;;;5041706;28;20052;-62
2021/04/25 07:38:18;;;;;;;15.00;10.68;;;48.10;7.10;;;;;;5053898;28;20040;-62
2021/04/25 07:40:44;;;;;;;13.85;10.18;;;49.00;7.00;;;;;;5062049;28;20041;-62
2021/04/25 07:43:09;;;;;;;17.65;10.82;;;45.70;7.70;;;;;;5062423;28;20040;-65
2021/04/25 07:45:35;;;;;;;12.35;9.80;;;35.50;12.70;;;;;;5064159;28;20279;-66
2021/04/25 07:48:00;;;;;;;15.77;11.15;;;30.00;17.70;;;;;;5062539;28;20052;-66
2021/04/25 07:50:26;;;;;;;14.65;11.15;;;25.30;22.50;;;;;;5044780;28;20036;-65
2021/04/25 07:52:52;;;;;;;15.55;11.05;;;21.30;26.90;;;;;;5062519;28;20037;-66
2021/04/25 07:55:17;;;;;;;18.23;11.82;;;19.20;32.00;;;;;;5058498;28;20259;-62
2021/04/25 07:57:43;;;;;;;17.60;11.52;;;18.00;34.80;;;;;;5044070;28;20045;-63
2021/04/25 08:00:10;;;;;;;16.02;11.80;;;17.00;35.70;;;;;;5061748;28;20372;-60
2021/04/25 08:02:36;;;;;;;21.63;12.82;;;16.50;37.90;;;;;;5061012;28;20060;-61
2021/04/25 08:05:02;;;;;;;16.17;11.55;;;16.00;38.40;;;;;;5062026;28;20256;-62
2021/04/25 08:07:27;;;;;;;16.15;12.50;;;15.90;39.60;;;;;;5062295;28;20044;-61
2021/04/25 08:09:53;;;;;;;22.50;13.25;;;15.80;39.30;;;;;;5062303;28;20096;-59
2021/04/25 08:12:19;;;;;;;19.27;12.25;;;15.80;38.80;;;;;;5066895;28;20288;-59
2021/04/25 08:14:44;;;;;;;19.33;12.13;;;15.50;39.50;;;;;;5066177;28;20108;-61
2021/04/25 08:17:10;;;;;;;18.58;12.60;;;15.40;39.00;;;;;;5055064;28;20288;-60
2021/04/25 08:19:35;;;;;;;22.63;13.20;;;15.30;39.00;;;;;;5051959;28;20108;-63
2021/04/25 08:22:01;;;;;;;17.17;12.57;;;15.40;40.30;;;;;;5066280;28;20037;-62
2021/04/25 08:24:26;;;;;;;17.42;12.23;;;15.40;39.50;;;;;;5067724;28;20087;-63
2021/04/25 08:26:52;;;;;;;16.08;12.38;;;15.30;39.60;;;;;;5064692;28;20044;-62
2021/04/25 08:29:18;;;;;;;18.83;12.20;;;15.30;40.50;;;;;;5066059;28;20067;-62
2021/04/25 08:31:43;;;;;;;16.40;11.10;;;15.30;39.60;;;;;;5065801;28;20075;-60
2021/04/25 08:34:09;;;;;;;19.63;12.13;;;15.30;39.50;;;;;;5065592;28;20048;-61
2021/04/25 08:36:34;;;;;;;17.63;12.20;;;15.40;39.30;;;;;;5067466;28;20031;-61
2021/04/25 08:39:00;;;;;;;19.73;11.82;;;15.50;39.10;;;;;;5066028;28;20041;-60
2021/04/25 08:41:26;;;;;;;22.83;12.18;;;15.40;39.20;;;;;;5065745;28;20048;-62
2021/04/25 08:43:51;;;;;;;26.27;12.57;;;15.50;39.20;;;;;;5065851;28;20033;-62
2021/04/25 08:46:21;;;;;;;22.50;11.20;;;15.70;38.40;;;;;;5064931;28;20228;-63
2021/04/25 08:48:48;;;;;;;18.27;11.57;;;15.80;39.10;;;;;;5067107;28;20032;-61
2021/04/25 08:51:14;;;;;;;16.58;10.75;;;15.80;38.70;;;;;;5065997;28;20036;-63
2021/04/25 08:53:40;;;;;;;19.55;11.27;;;15.90;40.20;;;;;;5064878;28;20354;-62
2021/04/25 08:56:06;;;;;;;34.35;15.10;;;16.10;40.00;;;;;;5065433;28;20072;-64
2021/04/25 08:58:33;;;;;;;20.88;12.63;;;16.20;40.20;;;;;;5064174;28;20033;-64
2021/04/25 09:00:58;;;;;;;18.75;11.15;;;16.30;39.70;;;;;;5064034;28;20033;-62
2021/04/25 09:03:24;;;;;;;18.05;10.75;;;16.30;37.60;;;;;;5066641;28;20044;-63
2021/04/25 09:05:49;;;;;;;16.85;10.05;;;16.40;38.30;;;;;;5065545;28;20109;-62
2021/04/25 09:08:15;;;;;;;17.00;10.80;;;16.60;38.50;;;;;;5064950;28;20078;-61
2021/04/25 09:10:43;;;;;;;22.23;10.48;;;16.60;37.20;;;;;;5064924;28;20201;-62
2021/04/25 09:13:17;;;;;;;16.83;11.32;;;16.70;40.40;;;;;;5065028;28;20091;-61
2021/04/25 09:15:42;;;;;;;18.42;11.60;;;16.60;36.40;;;;;;5066866;28;20079;-62
2021/04/25 09:18:08;;;;;;;16.55;10.35;;;16.70;38.00;;;;;;5065532;28;20323;-62
2021/04/25 09:20:39;;;;;;;17.38;10.18;;;16.80;36.90;;;;;;5064713;28;20063;-62
2021/04/25 09:23:10;;;;;;;17.20;10.13;;;17.10;38.20;;;;;;5063542;28;20052;-62
2021/04/25 09:25:35;;;;;;;15.47;10.03;;;17.10;36.60;;;;;;5057797;28;20041;-62
2021/04/25 09:28:09;;;;;;;19.73;8.95;;;17.30;37.50;;;;;;5046174;28;20583;-62
2021/04/25 09:30:35;;;;;;;16.52;10.60;;;17.30;36.60;;;;;;5066212;28;20045;-61
2021/04/25 09:33:01;;;;;;;17.58;10.25;;;17.30;36.60;;;;;;5065024;28;20033;-63
2021/04/25 09:35:27;;;;;;;15.00;9.73;;;17.30;36.00;;;;;;5064759;28;20197;-60
2021/04/25 09:37:53;;;;;;;14.75;9.70;;;17.30;38.40;;;;;;5064367;28;20079;-63
2021/04/25 09:40:21;;;;;;;21.63;10.48;;;17.40;36.90;;;;;;5063507;28;20324;-61
2021/04/25 09:43:06;;;;;;;19.08;10.80;;;17.50;37.00;;;;;;5065011;28;20316;-61
2021/04/25 09:45:46;;;;;;;21.17;11.98;;;17.60;37.30;;;;;;5064929;28;20036;-61
2021/04/25 09:48:24;;;;;;;19.40;10.25;;;17.30;36.50;;;;;;5064736;28;20033;-62
2021/04/25 09:51:12;;;;;;;17.23;10.98;;;17.60;36.60;;;;;;5047692;28;20060;-61
2021/04/25 09:53:40;;;;;;;19.48;11.32;;;17.60;38.20;;;;;;5058470;28;20259;-62
2021/04/25 09:56:06;;;;;;;18.88;11.52;;;17.70;37.80;;;;;;5063782;28;20250;-63
2021/04/25 09:58:32;;;;;;;19.50;9.25;;;17.70;35.00;;;;;;5064039;28;20029;-62
2021/04/25 10:00:57;;;;;;;18.45;9.65;;;17.80;35.70;;;;;;5063723;28;20326;-63
2021/04/25 10:03:23;;;;;;;15.98;10.15;;;17.80;36.70;;;;;;5065918;28;20033;-62
2021/04/25 10:06:01;;;;;;;17.52;9.45;;;17.80;36.50;;;;;;5063397;28;20044;-59
2021/04/25 10:08:31;;;;;;;15.77;10.23;;;17.80;36.20;;;;;;5063437;28;20205;-63
2021/04/25 10:10:57;;;;;;;14.57;8.77;;;18.00;35.90;;;;;;5053746;28;20264;-61
2021/04/25 10:13:24;;;;;;;14.70;8.98;;;18.30;36.70;;;;;;5043506;28;20105;-61
2021/04/25 10:15:50;;;;;;;15.55;9.45;;;18.30;35.40;;;;;;5044385;28;20021;-62
2021/04/25 10:18:17;;;;;;;14.38;8.70;;;18.30;34.70;;;;;;5063535;28;20198;-63
2021/04/25 10:20:43;;;;;;;14.65;9.35;;;18.40;36.60;;;;;;5063309;28;20336;-64
2021/04/25 10:23:08;;;;;;;15.75;8.85;;;18.60;35.90;;;;;;5051707;28;20048;-62
2021/04/25 10:25:36;;;;;;;17.40;8.77;;;18.60;35.70;;;;;;5049199;28;20083;-62
2021/04/25 10:28:04;;;;;;;21.08;9.38;;;18.80;35.30;;;;;;5062070;28;20060;-61
2021/04/25 10:30:36;;;;;;;17.35;9.10;;;18.70;34.40;;;;;;5063914;28;20102;-60
2021/04/25 10:33:02;;;;;;;18.10;8.57;;;18.70;36.30;;;;;;5063749;28;20037;-61
2021/04/25 10:35:33;;;;;;;17.90;8.60;;;18.70;35.00;;;;;;5061825;28;20044;-61
2021/04/25 10:37:59;;;;;;;20.17;8.82;;;18.70;35.20;;;;;;5063528;28;20033;-61
2021/04/25 10:40:30;;;;;;;15.95;7.90;;;18.70;35.60;;;;;;5063317;28;20112;-62
2021/04/25 10:43:09;;;;;;;18.65;8.35;;;18.60;35.00;;;;;;5063329;28;20029;-63
2021/04/25 10:45:56;;;;;;;15.23;8.57;;;18.60;36.40;;;;;;5064968;28;20320;-62
2021/04/25 10:48:39;;;;;;;19.08;9.75;;;18.30;36.30;;;;;;5055447;28;20033;-61
2021/04/25 10:51:08;;;;;;;14.82;8.65;;;18.60;37.40;;;;;;5063219;28;20216;-61
2021/04/25 10:53:36;;;;;;;16.10;8.95;;;18.60;34.30;;;;;;5063147;28;20247;-62
2021/04/25 10:56:14;;;;;;;14.98;8.80;;;18.30;33.90;;;;;;5061105;28;20304;-61
2021/04/25 10:58:41;;;;;;;13.32;7.97;;;18.30;35.00;;;;;;5063315;28;20036;-62
2021/04/25 11:01:07;;;;;;;15.38;8.45;;;18.50;39.80;;;;;;5061485;28;20046;-65
2021/04/25 11:03:32;;;;;;;19.17;9.07;;;18.40;36.00;;;;;;5064178;28;20061;-63
2021/04/25 11:05:58;;;;;;;13.40;7.97;;;18.40;36.30;;;;;;5062771;28;20132;-61
2021/04/25 11:08:29;;;;;;;14.05;8.10;;;18.50;37.00;;;;;;5062796;28;20251;-63
2021/04/25 11:11:02;;;;;;;14.93;8.27;;;18.60;35.00;;;;;;5062393;28;20029;-61
2021/04/25 11:13:45;;;;;;;13.25;8.55;;;18.50;34.40;;;;;;5062680;28;20031;-60
2021/04/25 11:16:16;;;;;;;14.60;7.95;;;18.60;35.50;;;;;;5062601;28;21613;-60
2021/04/25 11:19:09;;;;;;;16.15;9.00;;;18.70;36.70;;;;;;5064512;28;20028;-61
2021/04/25 11:21:49;;;;;;;17.45;9.13;;;18.60;34.40;;;;;;5062702;28;20045;-62
2021/04/25 11:24:15;;;;;;;17.25;9.00;;;18.80;35.80;;;;;;5062987;28;20029;-62
2021/04/25 11:26:42;;;;;;;16.27;8.70;;;18.80;37.20;;;;;;5062946;28;20033;-62
2021/04/25 11:29:19;;;;;;;15.68;8.27;;;18.90;36.60;;;;;;5062832;28;20216;-62
2021/04/25 11:34:23;;;;;;;12.65;7.70;;;19.00;35.10;;;;;;5061820;28;20068;-63
2021/04/25 11:36:48;;;;;;;13.85;8.55;;;19.10;36.50;;;;;;5064144;28;20033;-62
2021/04/25 11:39:16;;;;;;;15.55;8.20;;;18.90;36.30;;;;;;5062551;28;20123;-63
2021/04/25 11:41:43;;;;;;;13.50;8.10;;;18.80;35.10;;;;;;5061415;28;20028;-62
2021/04/25 11:44:08;;;;;;;16.80;8.23;;;18.70;35.30;;;;;;5062386;28;20197;-62
2021/04/25 11:46:34;;;;;;;14.18;8.10;;;18.80;34.90;;;;;;5061686;28;20029;-61
2021/04/25 11:49:01;;;;;;;12.35;7.55;;;18.80;35.60;;;;;;5062013;28;20036;-62
2021/04/25 11:51:27;;;;;;;14.05;8.20;;;18.80;34.70;;;;;;5064087;28;20036;-62
2021/04/25 11:53:53;;;;;;;15.65;7.53;;;18.90;34.50;;;;;;5045099;28;20100;-62
2021/04/25 11:56:29;;;;;;;13.93;7.55;;;18.80;34.60;;;;;;5054010;28;20259;-62
2021/04/25 11:59:24;;;;;;;14.77;7.25;;;18.80;35.90;;;;;;5062253;28;20033;-62
2021/04/25 12:01:49;;;;;;;11.57;8.00;;;18.80;35.60;;;;;;5057416;28;20045;-62
2021/04/25 12:04:15;;;;;;;15.93;8.55;;;18.80;34.30;;;;;;5061854;28;20059;-61
2021/04/25 12:06:50;;;;;;;14.23;8.32;;;18.80;33.80;;;;;;5064466;28;20223;-62
2021/04/25 12:09:16;;;;;;;12.98;7.85;;;18.80;34.30;;;;;;5063491;28;20056;-62
2021/04/25 12:11:42;;;;;;;14.82;8.57;;;18.90;33.20;;;;;;5062820;28;20064;-62
2021/04/25 12:14:20;;;;;;;18.45;9.30;;;19.00;36.10;;;;;;5061915;28;20049;-62
2021/04/25 12:16:46;;;;;;;16.75;8.43;;;19.10;33.30;;;;;;5063971;28;20037;-62
2021/04/25 12:19:21;;;;;;;12.68;8.13;;;19.00;34.10;;;;;;5062772;28;20249;-62
2021/04/25 12:21:47;;;;;;;13.55;8.80;;;19.10;34.00;;;;;;5065137;28;20289;-61
2021/04/25 12:24:13;;;;;;;13.15;8.48;;;19.10;33.40;;;;;;5062353;28;20037;-61
2021/04/25 12:26:43;;;;;;;14.82;8.20;;;19.10;33.90;;;;;;5062803;28;20033;-61
2021/04/25 12:29:09;;;;;;;12.07;6.85;;;19.20;32.30;;;;;;5062368;28;20096;-61
2021/04/25 12:31:45;;;;;;;14.63;8.15;;;19.00;33.10;;;;;;5060396;28;20033;-61
2021/04/25 12:34:14;;;;;;;13.48;7.25;;;19.10;32.20;;;;;;5060479;28;20050;-61
2021/04/25 12:36:47;;;;;;;15.18;7.25;;;19.20;34.30;;;;;;5062282;28;20025;-61
2021/04/25 12:39:13;;;;;;;12.00;7.00;;;19.30;33.30;;;;;;5062332;28;20072;-61